Time;durP1;ratioP1;P1;durP2;ratioP2;P2;SDS_P1;SDS_P2;PMS_P1;PMS_P2;Temp;Humidity;BMP_temperature;BMP_pressure;BME280_temperature;BME280_humidity;BME280_pressure;Samples;Min_cycle;Max_cycle;Signal;HPM_P1;HPM_P2
2021/01/24 00:00:48;;;;;;;2.85;1.30;;;;;;;25.24;37.91;95986.25;4991323;28;20232;-61
2021/01/24 00:03:15;;;;;;;3.42;1.40;;;;;;;25.16;37.19;95983.97;4991133;28;20224;-62
2021/01/24 00:05:42;;;;;;;2.20;0.93;;;;;;;25.16;38.11;95992.78;4991638;28;20292;-61
2021/01/24 00:08:10;;;;;;;8.38;1.40;;;;;;;25.28;37.67;95996.28;4990201;28;20205;-61
2021/01/24 00:10:36;;;;;;;8.15;1.60;;;;;;;25.28;37.89;95995.44;4991211;28;20256;-61
2021/01/24 00:13:02;;;;;;;5.72;1.23;;;;;;;25.35;36.85;96000.66;4990046;28;20209;-60
2021/01/24 00:15:28;;;;;;;3.42;1.10;;;;;;;25.36;37.11;96008.44;4989998;28;20532;-60
2021/01/24 00:17:55;;;;;;;3.17;1.30;;;;;;;25.35;37.64;96006.84;4991774;28;20229;-60
2021/01/24 00:20:21;;;;;;;5.95;1.50;;;;;;;25.33;37.58;96006.28;4990046;28;20218;-59
2021/01/24 00:22:47;;;;;;;4.53;1.35;;;;;;;25.36;37.57;96005.75;4990680;28;20277;-61
2021/01/24 00:25:14;;;;;;;4.45;1.10;;;;;;;25.34;37.44;96002.53;4990232;28;20201;-60
2021/01/24 00:27:40;;;;;;;2.88;1.50;;;;;;;25.32;37.17;96001.16;4989351;28;20670;-61
2021/01/24 00:30:08;;;;;;;3.15;1.30;;;;;;;25.29;37.50;96002.44;4988987;28;20255;-61
2021/01/24 00:32:34;;;;;;;3.28;1.10;;;;;;;25.27;37.14;96002.66;4991790;28;20208;-58
2021/01/24 00:35:00;;;;;;;3.92;1.65;;;;;;;25.25;37.00;96002.06;4992442;28;20209;-58
2021/01/24 00:37:26;;;;;;;3.88;1.48;;;;;;;25.22;37.93;96007.88;4990228;28;20705;-62
2021/01/24 00:39:52;;;;;;;3.63;1.38;;;;;;;25.19;37.26;96002.22;4989699;28;20222;-62
2021/01/24 00:42:19;;;;;;;2.35;1.17;;;;;;;25.21;37.67;96011.59;4991245;28;20213;-61
2021/01/24 00:44:45;;;;;;;3.42;1.20;;;;;;;25.19;37.37;96011.03;4989474;28;20639;-61
2021/01/24 00:47:13;;;;;;;2.72;1.27;;;;;;;25.17;37.91;96013.13;4989932;28;20297;-61
2021/01/24 00:49:40;;;;;;;3.97;1.67;;;;;;;25.17;38.10;96012.34;4992189;28;20283;-61
2021/01/24 00:52:06;;;;;;;3.83;1.60;;;;;;;25.15;37.63;96009.06;4990617;28;20273;-62
2021/01/24 00:54:32;;;;;;;3.85;1.60;;;;;;;25.12;37.88;96019.19;4989675;28;20300;-61
2021/01/24 00:56:58;;;;;;;5.22;1.33;;;;;;;25.13;37.98;96009.31;4989720;28;20319;-62
2021/01/24 00:59:25;;;;;;;5.78;1.20;;;;;;;25.09;38.17;96013.50;4989228;28;20733;-61
2021/01/24 01:01:51;;;;;;;2.03;1.00;;;;;;;25.06;37.78;96020.16;4990144;28;20212;-62
2021/01/24 01:04:17;;;;;;;5.53;1.20;;;;;;;25.07;37.82;96015.59;4990075;28;20213;-62
2021/01/24 01:06:44;;;;;;;4.75;1.40;;;;;;;25.14;37.37;96018.94;4991595;28;20201;-62
2021/01/24 01:09:10;;;;;;;2.33;1.17;;;;;;;25.10;37.64;96023.16;4990234;28;20209;-62
2021/01/24 01:11:36;;;;;;;3.17;1.10;;;;;;;25.11;37.40;96025.59;4988830;28;20209;-61
2021/01/24 01:14:02;;;;;;;2.03;1.00;;;;;;;25.12;37.06;96023.72;4990787;28;20294;-61
2021/01/24 01:16:29;;;;;;;4.00;1.13;;;;;;;25.14;36.97;96026.16;4990222;28;20200;-61
2021/01/24 01:18:55;;;;;;;2.40;1.20;;;;;;;25.05;38.00;96023.06;4991129;28;20235;-61
2021/01/24 01:21:21;;;;;;;2.53;1.15;;;;;;;25.00;37.72;96020.28;4989131;28;20225;-60
2021/01/24 01:23:48;;;;;;;4.95;1.10;;;;;;;25.03;38.26;96023.28;4989618;28;20205;-61
2021/01/24 01:26:14;;;;;;;2.20;1.00;;;;;;;24.95;38.15;96021.00;4989721;28;20205;-61
2021/01/24 01:28:40;;;;;;;1.63;0.93;;;;;;;24.94;37.74;96016.69;4991277;28;20201;-60
2021/01/24 01:31:07;;;;;;;3.97;1.10;;;;;;;24.93;37.11;96015.88;4988734;28;20329;-61
2021/01/24 01:33:34;;;;;;;1.67;1.10;;;;;;;24.90;37.98;96016.34;4990591;28;20237;-59
2021/01/24 01:36:00;;;;;;;2.10;1.00;;;;;;;24.90;37.49;96008.31;4988671;28;20292;-58
2021/01/24 01:38:27;;;;;;;2.38;1.13;;;;;;;24.86;37.57;96017.03;4990854;28;20229;-61
2021/01/24 01:40:53;;;;;;;1.52;0.95;;;;;;;24.78;38.31;96009.38;4990144;28;20267;-59
2021/01/24 01:43:19;;;;;;;1.67;0.90;;;;;;;24.73;37.34;96015.41;4989582;28;20205;-61
2021/01/24 01:45:45;;;;;;;3.33;0.70;;;;;;;24.77;37.95;96013.13;4990786;28;20232;-60
2021/01/24 01:48:12;;;;;;;1.92;0.90;;;;;;;24.67;38.47;96017.19;4988407;28;20683;-61
2021/01/24 01:50:39;;;;;;;2.28;0.90;;;;;;;24.69;37.39;96019.63;4989531;28;20328;-61
2021/01/24 01:53:05;;;;;;;3.65;0.95;;;;;;;24.69;37.27;96025.78;4989657;28;20599;-60
2021/01/24 01:55:31;;;;;;;2.60;0.95;;;;;;;24.66;37.70;96020.88;4990066;28;20220;-60
2021/01/24 01:57:57;;;;;;;2.90;0.88;;;;;;;24.56;38.49;96015.31;4988839;28;20275;-59
2021/01/24 02:00:24;;;;;;;2.33;1.10;;;;;;;24.58;38.09;96023.94;4988801;28;20320;-61
2021/01/24 02:03:12;;;;;;;2.50;1.08;;;;;;;24.66;37.30;96020.09;4988434;28;20296;-60
2021/01/24 02:05:49;;;;;;;1.83;0.88;;;;;;;24.63;37.89;96020.53;4990438;28;20256;-60
2021/01/24 02:08:22;;;;;;;3.22;0.98;;;;;;;24.61;37.63;96031.47;4995150;28;20215;-61
2021/01/24 02:10:53;;;;;;;1.92;0.90;;;;;;;24.58;37.70;96034.63;4994319;28;20240;-61
2021/01/24 02:13:33;;;;;;;1.63;0.90;;;;;;;24.55;38.54;96041.22;4994693;28;20205;-61
2021/01/24 02:16:02;;;;;;;2.05;0.95;;;;;;;24.52;38.11;96046.19;4994384;28;20205;-61
2021/01/24 02:18:32;;;;;;;2.50;1.10;;;;;;;24.57;38.61;96054.38;4995159;28;20225;-61
2021/01/24 02:21:09;;;;;;;1.52;0.90;;;;;;;24.54;38.59;96073.50;4994736;28;20605;-61
2021/01/24 02:23:35;;;;;;;3.13;0.88;;;;;;;24.54;38.41;96076.97;4994357;28;20203;-61
2021/01/24 02:26:10;;;;;;;3.50;0.77;;;;;;;24.51;38.19;96098.78;4993043;28;20300;-62
2021/01/24 02:28:53;;;;;;;1.42;0.73;;;;;;;24.45;37.62;96085.53;4994725;28;20234;-61
2021/01/24 02:31:24;;;;;;;2.25;0.90;;;;;;;24.47;38.47;96104.84;4993993;28;20217;-60
2021/01/24 02:33:52;;;;;;;1.60;0.80;;;;;;;24.48;37.20;96117.13;4994025;28;20237;-61
2021/01/24 02:36:20;;;;;;;2.60;0.80;;;;;;;24.46;38.38;96111.22;4992231;28;20263;-61
2021/01/24 02:38:47;;;;;;;1.42;0.80;;;;;;;24.45;37.50;96122.94;4993311;28;20257;-62
2021/01/24 02:41:15;;;;;;;1.65;0.75;;;;;;;24.38;38.53;96131.88;4994235;28;20228;-60
2021/01/24 02:43:44;;;;;;;1.25;1.00;;;;;;;24.37;38.14;96140.13;4995782;28;20756;-62
2021/01/24 02:46:11;;;;;;;1.63;0.77;;;;;;;24.38;38.02;96137.22;4993658;28;20235;-61
2021/01/24 02:48:38;;;;;;;3.03;1.00;;;;;;;24.34;38.68;96141.38;4992151;28;20209;-61
2021/01/24 02:51:05;;;;;;;3.50;1.17;;;;;;;24.26;37.95;96154.25;4991689;28;20618;-61
2021/01/24 02:53:34;;;;;;;1.20;0.65;;;;;;;24.30;37.90;96158.09;4993669;28;20217;-60
2021/01/24 02:56:00;;;;;;;1.58;0.80;;;;;;;24.29;37.59;96159.13;4992431;28;20206;-60
2021/01/24 02:58:27;;;;;;;1.52;0.70;;;;;;;24.27;37.51;96170.03;4991211;28;20217;-60
2021/01/24 03:00:54;;;;;;;4.95;0.77;;;;;;;24.29;38.42;96177.84;4992603;28;20308;-61
2021/01/24 03:03:20;;;;;;;1.38;0.57;;;;;;;24.25;38.76;96176.63;4992996;28;20337;-58
2021/01/24 03:05:47;;;;;;;1.30;0.70;;;;;;;24.22;37.89;96180.59;4991421;28;20257;-60
2021/01/24 03:08:14;;;;;;;1.08;0.75;;;;;;;24.23;38.21;96184.91;4990723;28;20283;-62
2021/01/24 03:10:40;;;;;;;1.85;0.80;;;;;;;24.18;37.45;96185.56;4991248;28;20223;-59
2021/01/24 03:13:14;;;;;;;2.08;0.75;;;;;;;24.19;38.83;96199.72;4991346;28;20209;-61
2021/01/24 03:15:43;;;;;;;1.33;0.70;;;;;;;24.28;38.78;96205.56;4993291;28;20667;-60
2021/01/24 03:18:15;;;;;;;1.63;0.90;;;;;;;24.29;38.62;96217.88;4993306;28;20231;-61
2021/01/24 03:20:45;;;;;;;1.40;0.80;;;;;;;24.34;38.34;96234.03;4993148;28;20236;-61
2021/01/24 03:23:13;;;;;;;0.45;0.45;;;;;;;24.36;37.53;96256.81;4993792;28;20681;-61
2021/01/24 03:25:40;;;;;;;1.05;0.63;;;;;;;24.36;38.19;96246.13;4990943;28;20210;-60
2021/01/24 03:28:07;;;;;;;3.67;0.60;;;;;;;24.35;38.58;96265.84;4991245;28;20628;-61
2021/01/24 03:30:33;;;;;;;3.90;0.88;;;;;;;24.35;37.66;96265.84;4991558;28;20245;-60
2021/01/24 03:33:00;;;;;;;1.00;0.63;;;;;;;24.36;38.52;96262.16;4990731;28;20209;-61
2021/01/24 03:35:26;;;;;;;0.63;0.50;;;;;;;24.34;37.74;96272.22;4992631;28;20228;-61
2021/01/24 03:37:52;;;;;;;1.45;0.52;;;;;;;24.32;38.20;96279.66;4992652;28;20523;-60
2021/01/24 03:40:19;;;;;;;1.90;0.70;;;;;;;24.25;37.87;96292.28;4991807;28;20346;-61
2021/01/24 03:42:45;;;;;;;0.85;0.60;;;;;;;24.18;38.73;96296.88;4992042;28;20255;-61
2021/01/24 03:45:12;;;;;;;1.42;0.60;;;;;;;24.07;38.78;96289.63;4991926;28;20209;-60
2021/01/24 03:47:38;;;;;;;1.50;0.73;;;;;;;24.10;38.23;96297.16;4991211;28;20206;-61
2021/01/24 03:50:06;;;;;;;1.20;0.70;;;;;;;24.19;38.13;96303.84;4989393;28;20217;-61
2021/01/24 03:52:32;;;;;;;0.70;0.50;;;;;;;24.33;37.77;96315.19;4990587;28;20289;-58
2021/01/24 03:54:58;;;;;;;0.93;0.60;;;;;;;24.29;37.82;96312.16;4989951;28;20212;-61
2021/01/24 03:57:27;;;;;;;1.38;0.73;;;;;;;24.36;38.05;96304.03;4989677;28;20233;-61
2021/01/24 03:59:53;;;;;;;0.95;0.70;;;;;;;24.39;37.32;96315.09;4991092;28;20407;-61
2021/01/24 04:02:20;;;;;;;0.80;0.65;;;;;;;24.33;37.55;96312.50;4989604;28;20206;-61
2021/01/24 04:04:46;;;;;;;2.88;0.60;;;;;;;24.35;38.10;96329.94;4990895;28;20215;-61
2021/01/24 04:07:13;;;;;;;0.93;0.65;;;;;;;24.33;37.46;96336.53;4990758;28;20651;-60
2021/01/24 04:09:40;;;;;;;1.40;0.50;;;;;;;24.29;38.35;96330.84;4990296;28;20313;-61
2021/01/24 04:12:07;;;;;;;1.48;0.50;;;;;;;24.27;37.43;96340.13;4990363;28;20205;-61
2021/01/24 04:14:34;;;;;;;0.88;0.50;;;;;;;24.24;38.28;96343.22;4991059;28;20213;-57
2021/01/24 04:17:00;;;;;;;2.47;0.73;;;;;;;24.23;37.67;96346.94;4990085;28;20660;-61
2021/01/24 04:19:26;;;;;;;0.68;0.55;;;;;;;24.19;38.00;96350.03;4970130;28;20601;-61
2021/01/24 04:21:52;;;;;;;2.85;0.75;;;;;;;24.16;37.50;96352.34;4972918;28;20214;-60
2021/01/24 04:24:18;;;;;;;1.55;0.60;;;;;;;24.15;37.71;96351.53;4971919;28;20297;-61
2021/01/24 04:26:44;;;;;;;0.80;0.60;;;;;;;24.12;38.33;96351.16;4971857;28;20202;-61
2021/01/24 04:29:11;;;;;;;1.58;0.70;;;;;;;24.11;38.09;96349.53;4970221;28;20673;-61
2021/01/24 04:31:38;;;;;;;1.95;0.50;;;;;;;24.10;37.85;96356.72;4970353;28;20293;-60
2021/01/24 04:34:04;;;;;;;0.93;0.50;;;;;;;24.08;38.42;96349.97;4971462;28;20209;-62
2021/01/24 04:36:30;;;;;;;1.23;0.55;;;;;;;24.05;37.61;96351.25;4989702;28;20201;-61
2021/01/24 04:38:56;;;;;;;0.55;0.40;;;;;;;24.06;37.99;96357.38;4990210;28;20305;-61
2021/01/24 04:41:23;;;;;;;3.08;0.50;;;;;;;24.08;37.69;96360.66;4989924;28;20234;-61
2021/01/24 04:43:50;;;;;;;0.57;0.52;;;;;;;24.09;37.86;96362.28;4988201;28;20739;-62
2021/01/24 04:46:17;;;;;;;0.80;0.45;;;;;;;24.07;37.90;96377.72;4990055;28;20691;-61
2021/01/24 04:48:44;;;;;;;0.75;0.57;;;;;;;24.12;38.44;96383.22;4985200;28;592019;-60
2021/01/24 04:51:10;;;;;;;0.90;0.60;;;;;;;24.01;38.70;96376.72;4990042;28;20229;-62
2021/01/24 04:53:39;;;;;;;1.13;0.40;;;;;;;24.11;37.73;96389.56;4971695;28;20585;-62
2021/01/24 04:56:05;;;;;;;1.67;0.57;;;;;;;24.10;38.53;96385.25;4971336;28;20340;-61
2021/01/24 04:58:32;;;;;;;1.33;0.60;;;;;;;24.13;37.44;96391.00;4971536;28;20705;-60
2021/01/24 05:00:59;;;;;;;0.75;0.70;;;;;;;24.17;37.55;96386.84;4972294;28;20640;-60
2021/01/24 05:03:25;;;;;;;2.65;0.60;;;;;;;24.19;38.20;96394.63;4971075;28;20210;-56
2021/01/24 05:05:52;;;;;;;0.98;0.45;;;;;;;24.21;37.94;96395.22;4972295;28;20625;-61
2021/01/24 05:08:18;;;;;;;0.93;0.57;;;;;;;24.17;38.01;96396.69;4972161;28;20289;-60
2021/01/24 05:10:46;;;;;;;1.42;0.75;;;;;;;24.16;38.91;96393.22;4989960;28;20283;-59
2021/01/24 05:13:12;;;;;;;0.63;0.45;;;;;;;24.15;39.23;96398.78;4990335;28;20206;-62
2021/01/24 05:15:38;;;;;;;2.40;0.80;;;;;;;24.16;38.41;96400.41;4990549;28;20683;-60
2021/01/24 05:18:05;;;;;;;2.92;0.80;;;;;;;24.11;39.29;96397.59;4991898;28;20221;-61
2021/01/24 05:20:33;;;;;;;3.72;0.50;;;;;;;24.11;38.46;96397.59;4991096;28;20225;-60
2021/01/24 05:23:01;;;;;;;2.65;0.80;;;;;;;24.06;38.52;96405.44;4990206;28;20207;-56
2021/01/24 05:25:28;;;;;;;3.00;0.60;;;;;;;24.12;38.56;96415.25;4990594;28;20215;-61
2021/01/24 05:27:54;;;;;;;1.17;0.80;;;;;;;24.14;38.35;96419.31;4990240;28;20202;-61
2021/01/24 05:30:29;;;;;;;0.82;0.70;;;;;;;24.13;38.30;96411.50;4988906;28;20222;-61
2021/01/24 05:32:58;;;;;;;1.90;0.68;;;;;;;24.08;38.60;96419.38;4990961;28;20509;-60
2021/01/24 05:35:24;;;;;;;2.60;0.68;;;;;;;24.10;38.10;96433.31;4990314;28;20296;-61
2021/01/24 05:37:50;;;;;;;5.97;1.05;;;;;;;24.12;38.17;96428.59;4989211;28;20321;-60
2021/01/24 05:40:17;;;;;;;0.88;0.60;;;;;;;24.07;37.94;96433.78;4988493;28;20270;-61
2021/01/24 05:42:45;;;;;;;0.80;0.40;;;;;;;23.97;39.11;96434.28;4989091;28;20295;-60
2021/01/24 05:45:13;;;;;;;1.30;0.50;;;;;;;24.07;37.84;96444.44;4990989;28;20215;-59
2021/01/24 05:47:41;;;;;;;1.30;0.60;;;;;;;24.07;38.79;96441.78;4988541;28;20241;-60
2021/01/24 05:50:12;;;;;;;1.27;0.70;;;;;;;24.06;38.93;96442.81;4990360;28;20221;-60
2021/01/24 05:52:40;;;;;;;1.90;0.60;;;;;;;24.11;38.67;96432.28;4990041;28;20308;-61
2021/01/24 05:55:09;;;;;;;2.90;0.80;;;;;;;24.17;38.26;96436.75;4990888;28;20557;-61
2021/01/24 05:57:39;;;;;;;1.70;0.70;;;;;;;24.22;37.70;96439.56;4989486;28;20593;-61
2021/01/24 06:00:07;;;;;;;0.80;0.50;;;;;;;24.10;38.93;96436.81;4991881;28;20232;-61
2021/01/24 06:02:35;;;;;;;1.10;0.52;;;;;;;24.15;38.08;96444.16;4989644;28;20250;-62
2021/01/24 06:05:04;;;;;;;0.95;0.70;;;;;;;24.25;38.07;96478.34;4989846;28;20677;-62
2021/01/24 06:07:30;;;;;;;0.88;0.68;;;;;;;24.28;38.10;96470.75;4988807;28;20204;-62
2021/01/24 06:09:56;;;;;;;0.90;0.50;;;;;;;24.18;37.39;96479.25;4988952;28;20241;-62
2021/01/24 06:12:24;;;;;;;2.78;0.60;;;;;;;24.27;37.74;96489.66;4988840;28;20259;-60
2021/01/24 06:14:52;;;;;;;1.95;0.60;;;;;;;24.31;37.55;96485.50;4990281;28;20205;-62
2021/01/24 06:17:36;;;;;;;1.90;0.60;;;;;;;24.27;37.88;96493.13;4988454;28;20260;-61
2021/01/24 06:20:05;;;;;;;2.20;0.75;;;;;;;24.27;38.25;96493.13;4990274;28;20224;-60
2021/01/24 06:22:38;;;;;;;1.85;0.50;;;;;;;24.31;37.58;96491.63;4989939;28;20581;-61
2021/01/24 06:25:11;;;;;;;1.23;0.63;;;;;;;24.32;37.84;96490.63;4991210;28;20288;-61
2021/01/24 06:27:43;;;;;;;7.10;0.60;;;;;;;24.24;37.92;96504.25;4989812;28;20292;-61
2021/01/24 06:30:14;;;;;;;1.17;0.55;;;;;;;24.24;38.26;96506.91;4991071;28;20236;-62
2021/01/24 06:32:40;;;;;;;1.60;0.40;;;;;;;24.33;37.56;96507.44;4989958;28;20205;-60
2021/01/24 06:35:18;;;;;;;1.00;0.43;;;;;;;24.36;37.69;96507.84;4989002;28;20217;-60
2021/01/24 06:37:52;;;;;;;0.73;0.50;;;;;;;24.38;38.48;96515.63;4990910;28;20307;-60
2021/01/24 06:40:26;;;;;;;1.13;0.60;;;;;;;24.35;38.37;96516.88;4989502;28;20225;-60
2021/01/24 06:42:57;;;;;;;2.67;0.73;;;;;;;24.28;38.99;96510.78;4989788;28;20291;-61
2021/01/24 06:45:45;;;;;;;0.77;0.50;;;;;;;24.29;39.24;96509.75;4989712;28;20347;-61
2021/01/24 06:48:15;;;;;;;1.08;0.60;;;;;;;24.47;37.68;96510.81;4990330;28;20608;-61
2021/01/24 06:50:44;;;;;;;17.17;0.85;;;;;;;24.59;38.11;96505.59;4990634;28;20229;-60
2021/01/24 06:53:12;;;;;;;1.13;0.40;;;;;;;24.68;37.57;96515.78;4993144;28;20206;-61
2021/01/24 06:55:41;;;;;;;1.83;0.50;;;;;;;24.82;37.53;96510.28;4995816;28;20292;-59
2021/01/24 06:58:24;;;;;;;2.08;0.65;;;;;;;24.85;36.54;96517.88;4993745;28;20237;-61
2021/01/24 07:00:53;;;;;;;2.40;0.70;;;;;;;24.92;36.82;96526.63;4991849;28;20235;-60
2021/01/24 07:03:20;;;;;;;2.50;0.63;;;;;;;25.01;37.26;96533.28;4992046;28;20197;-60
2021/01/24 07:05:46;;;;;;;1.73;0.65;;;;;;;25.08;35.94;96535.88;4990843;28;20209;-59
2021/01/24 07:08:32;;;;;;;2.47;0.50;;;;;;;25.06;36.56;96544.16;4992299;28;20296;-61
2021/01/24 07:10:58;;;;;;;6.72;0.95;;;;;;;24.92;36.97;96540.78;4993735;28;20244;-66
2021/01/24 07:13:32;;;;;;;5.97;0.80;;;;;;;24.92;37.43;96542.66;4994141;28;20368;-67
2021/01/24 07:16:00;;;;;;;2.90;0.63;;;;;;;25.10;36.99;96555.22;4994330;28;20277;-69
2021/01/24 07:18:36;;;;;;;7.65;0.80;;;;;;;25.06;37.40;96543.31;4995148;28;20225;-68
2021/01/24 07:21:03;;;;;;;1.88;0.60;;;;;;;25.07;36.79;96550.31;4996908;28;20312;-69
2021/01/24 07:23:31;;;;;;;2.03;0.70;;;;;;;25.26;36.64;96553.78;4994108;28;20205;-68
2021/01/24 07:25:57;;;;;;;4.00;0.60;;;;;;;25.25;35.90;96558.31;5002830;28;20241;-68
2021/01/24 07:28:23;;;;;;;2.45;0.60;;;;;;;25.21;36.97;96553.63;5003519;28;20293;-68
2021/01/24 07:30:50;;;;;;;3.75;0.90;;;;;;;25.32;36.39;96552.91;4995708;28;20689;-69
2021/01/24 07:33:17;;;;;;;3.67;0.60;;;;;;;25.28;35.80;96552.56;4994655;28;20205;-69
2021/01/24 07:35:45;;;;;;;2.90;0.70;;;;;;;25.39;36.70;96552.81;4992161;28;20217;-68
2021/01/24 07:38:15;;;;;;;5.40;0.60;;;;;;;25.53;36.28;96551.63;4993345;28;20328;-69
2021/01/24 07:40:43;;;;;;;0.80;0.40;;;;;;;25.60;35.56;96554.22;4994240;28;20233;-66
2021/01/24 07:43:09;;;;;;;1.00;0.50;;;;;;;25.67;36.39;96557.59;4992206;28;20215;-68
2021/01/24 07:45:35;;;;;;;13.52;0.98;;;;;;;25.66;35.77;96555.97;4993486;28;20295;-69
2021/01/24 07:48:03;;;;;;;4.88;0.90;;;;;;;25.56;36.60;96556.50;4991591;28;20304;-70
2021/01/24 07:50:30;;;;;;;4.25;0.95;;;;;;;25.70;35.95;96565.19;4992121;28;20217;-70
2021/01/24 07:52:56;;;;;;;9.45;0.90;;;;;;;25.72;36.62;96568.44;4991290;28;20296;-68
2021/01/24 07:55:23;;;;;;;9.63;0.90;;;;;;;25.87;35.64;96567.22;4992288;28;20251;-68
2021/01/24 07:57:50;;;;;;;3.22;0.70;;;;;;;25.72;35.44;96568.44;4992343;28;20323;-70
2021/01/24 08:00:17;;;;;;;5.28;1.20;;;;;;;25.63;35.44;96575.97;4992170;28;20316;-67
2021/01/24 08:02:44;;;;;;;9.23;0.90;;;;;;;25.66;36.17;96561.31;4991465;28;20210;-68
2021/01/24 08:05:12;;;;;;;4.43;1.30;;;;;;;25.73;36.18;96562.06;4991959;28;20319;-69
2021/01/24 08:07:39;;;;;;;11.65;0.98;;;;;;;25.72;36.05;96572.97;4992150;28;20224;-67
2021/01/24 08:10:07;;;;;;;8.77;0.70;;;;;;;25.71;35.71;96574.00;4993808;28;20268;-70
2021/01/24 08:12:33;;;;;;;9.13;0.70;;;;;;;25.72;35.57;96576.47;4991946;28;20210;-70
2021/01/24 08:14:59;;;;;;;4.43;0.80;;;;;;;25.82;36.26;96579.41;4992380;28;20546;-70
2021/01/24 08:17:27;;;;;;;5.13;0.80;;;;;;;25.90;35.65;96574.78;4990025;28;20255;-69
2021/01/24 08:19:54;;;;;;;7.60;1.27;;;;;;;25.87;36.44;96573.38;4990621;28;20768;-69
2021/01/24 08:22:24;;;;;;;7.97;0.90;;;;;;;25.79;36.66;96587.09;4990016;28;20626;-69
2021/01/24 08:24:51;;;;;;;3.55;0.80;;;;;;;25.75;36.09;96589.41;4992164;28;20251;-69
2021/01/24 08:27:19;;;;;;;12.82;1.00;;;;;;;25.76;36.80;96587.53;4990740;28;20297;-69
2021/01/24 08:29:45;;;;;;;10.63;1.40;;;;;;;25.78;36.94;96594.31;4991224;28;20225;-70
2021/01/24 08:32:11;;;;;;;9.32;2.08;;;;;;;25.62;38.18;96590.38;4993028;28;20339;-68
2021/01/24 08:34:38;;;;;;;12.43;1.52;;;;;;;25.77;38.53;96591.84;4992529;28;20212;-71
2021/01/24 08:37:05;;;;;;;10.07;1.20;;;;;;;25.72;39.11;96605.91;4992259;28;20294;-71
2021/01/24 08:39:32;;;;;;;7.07;1.42;;;;;;;25.78;38.70;96605.00;4991984;28;20728;-72
2021/01/24 08:41:59;;;;;;;11.73;1.90;;;;;;;25.77;38.98;96607.91;4991854;28;20236;-70
2021/01/24 08:44:25;;;;;;;6.28;1.63;;;;;;;25.80;38.44;96605.59;4990899;28;20711;-71
2021/01/24 08:46:53;;;;;;;7.82;1.33;;;;;;;25.73;38.60;96615.59;4991705;28;20685;-70
2021/01/24 08:49:23;;;;;;;4.20;1.02;;;;;;;25.77;38.37;96613.28;4990810;28;20220;-73
2021/01/24 08:51:52;;;;;;;8.88;1.10;;;;;;;25.72;37.77;96621.97;4991341;28;20376;-71
2021/01/24 08:54:23;;;;;;;6.28;1.10;;;;;;;25.73;38.04;96610.22;4991228;28;20206;-71
2021/01/24 08:56:49;;;;;;;16.02;1.48;;;;;;;25.57;38.23;96629.59;4991943;28;20292;-73
2021/01/24 08:59:21;;;;;;;6.40;1.70;;;;;;;25.75;37.51;96626.88;4991633;28;20312;-71
2021/01/24 09:01:49;;;;;;;3.70;1.05;;;;;;;25.76;37.50;96644.56;4993208;28;20703;-72
2021/01/24 09:04:22;;;;;;;8.40;1.10;;;;;;;25.44;37.32;96642.06;4991854;28;20292;-70
2021/01/24 09:07:02;;;;;;;5.97;1.20;;;;;;;25.28;37.27;96648.84;4991540;28;20784;-71
2021/01/24 09:09:29;;;;;;;5.15;1.10;;;;;;;25.19;38.66;96639.44;4990435;28;20379;-71
2021/01/24 09:11:56;;;;;;;5.13;1.42;;;;;;;25.12;38.20;96655.53;4990369;28;20324;-71
2021/01/24 09:14:23;;;;;;;6.28;0.90;;;;;;;25.17;38.13;96654.06;4991917;28;20201;-71
2021/01/24 09:16:58;;;;;;;7.35;1.60;;;;;;;25.07;38.33;96662.59;4990639;28;20205;-70
2021/01/24 09:19:24;;;;;;;4.68;1.35;;;;;;;25.15;39.10;96675.69;4991724;28;20319;-70
2021/01/24 09:21:50;;;;;;;6.97;1.15;;;;;;;25.23;38.14;96671.88;4991800;28;20212;-70
2021/01/24 09:24:16;;;;;;;6.38;1.45;;;;;;;25.27;38.35;96673.13;4992827;28;20225;-70
2021/01/24 09:26:44;;;;;;;12.02;1.65;;;;;;;25.36;39.06;96690.50;4992085;28;20201;-68
2021/01/24 09:29:11;;;;;;;12.18;1.60;;;;;;;25.46;39.65;96693.50;4993700;28;20288;-68
2021/01/24 09:31:38;;;;;;;9.25;1.45;;;;;;;25.54;38.71;96687.03;4991152;28;20229;-69
2021/01/24 09:34:04;;;;;;;8.45;1.40;;;;;;;25.59;38.01;96691.72;4991907;28;20304;-68
2021/01/24 09:36:30;;;;;;;7.50;1.13;;;;;;;25.58;36.72;96695.41;4991148;28;20335;-68
2021/01/24 09:38:56;;;;;;;7.75;1.55;;;;;;;25.61;37.39;96701.16;4989739;28;20668;-67
2021/01/24 09:41:22;;;;;;;6.90;1.30;;;;;;;25.68;37.40;96685.03;4988249;28;20648;-68
2021/01/24 09:43:48;;;;;;;4.63;1.25;;;;;;;25.65;37.63;96696.97;4990094;28;20645;-69
2021/01/24 09:46:15;;;;;;;8.93;1.20;;;;;;;25.68;36.57;96693.06;4990966;28;20660;-68
2021/01/24 09:48:42;;;;;;;7.80;1.30;;;;;;;25.69;37.40;96688.50;4989397;28;20205;-68
2021/01/24 09:51:08;;;;;;;5.50;1.30;;;;;;;25.74;37.11;96694.81;4989766;28;20260;-68
2021/01/24 09:53:36;;;;;;;5.25;1.30;;;;;;;25.76;36.89;96687.38;4988611;28;20209;-67
2021/01/24 09:56:03;;;;;;;7.10;1.20;;;;;;;25.76;36.49;96694.59;4990272;28;20553;-68
2021/01/24 09:58:29;;;;;;;4.63;1.15;;;;;;;25.76;36.77;96700.75;4990830;28;20229;-68
2021/01/24 10:00:55;;;;;;;5.93;1.30;;;;;;;25.78;36.39;96698.69;4989058;28;20373;-68
2021/01/24 10:03:21;;;;;;;3.45;1.02;;;;;;;25.81;35.94;96700.94;4990874;28;20237;-69
2021/01/24 10:05:49;;;;;;;5.50;1.50;;;;;;;25.82;36.02;96701.75;4990854;28;20205;-68
2021/01/24 10:08:15;;;;;;;7.45;1.25;;;;;;;25.83;35.75;96701.50;4990380;28;20292;-68
2021/01/24 10:10:41;;;;;;;12.88;2.05;;;;;;;25.89;36.77;96713.16;4990698;28;20221;-71
2021/01/24 10:13:07;;;;;;;6.25;1.30;;;;;;;25.82;35.29;96720.47;4991380;28;20297;-70
2021/01/24 10:15:33;;;;;;;5.03;1.08;;;;;;;25.67;36.59;96721.66;4996669;28;20213;-69
2021/01/24 10:18:00;;;;;;;6.05;1.13;;;;;;;25.62;35.26;96713.50;4999236;28;20247;-72
2021/01/24 10:20:26;;;;;;;4.93;1.40;;;;;;;25.67;36.28;96731.56;4991422;28;20664;-70
2021/01/24 10:22:53;;;;;;;5.95;0.98;;;;;;;25.70;35.74;96731.13;4997556;28;20665;-69
2021/01/24 10:25:19;;;;;;;8.48;1.15;;;;;;;25.69;35.30;96724.13;4998453;28;20213;-70
2021/01/24 10:27:45;;;;;;;7.68;0.90;;;;;;;25.54;35.97;96731.69;4994369;28;20263;-69
2021/01/24 10:30:13;;;;;;;3.03;1.02;;;;;;;25.55;36.38;96728.00;4995546;28;20308;-71
2021/01/24 10:32:40;;;;;;;13.75;1.30;;;;;;;25.54;35.54;96727.16;4993623;28;20661;-69
2021/01/24 10:35:07;;;;;;;3.83;1.40;;;;;;;25.37;34.99;96739.50;4993620;28;20202;-69
2021/01/24 10:37:33;;;;;;;6.53;1.20;;;;;;;25.27;33.87;96732.78;4996630;28;20244;-69
2021/01/24 10:40:01;;;;;;;6.32;1.42;;;;;;;25.24;35.49;96721.69;4994758;28;20267;-69
2021/01/24 10:42:27;;;;;;;3.45;0.93;;;;;;;25.17;33.51;96737.78;4994586;28;20209;-70
2021/01/24 10:44:53;;;;;;;4.05;1.00;;;;;;;25.13;34.60;96725.91;4995000;28;20676;-71
2021/01/24 10:47:19;;;;;;;2.83;1.20;;;;;;;25.03;35.31;96734.41;4994352;28;20634;-71
2021/01/24 10:49:45;;;;;;;10.85;1.70;;;;;;;25.03;35.15;96731.75;4995960;28;20256;-72
2021/01/24 10:52:11;;;;;;;14.07;1.60;;;;;;;24.95;36.49;96713.31;4997975;28;20334;-73
2021/01/24 10:54:38;;;;;;;6.20;1.70;;;;;;;25.02;36.08;96721.25;4997109;28;20205;-70
2021/01/24 10:57:05;;;;;;;7.15;1.35;;;;;;;25.16;36.69;96725.44;4995385;28;20273;-72
2021/01/24 10:59:31;;;;;;;8.13;1.25;;;;;;;25.22;35.92;96724.56;4996714;28;20324;-71
2021/01/24 11:01:59;;;;;;;7.55;1.48;;;;;;;25.29;36.28;96735.22;4996517;28;20288;-71
2021/01/24 11:04:25;;;;;;;7.85;1.15;;;;;;;25.42;35.51;96729.75;4996655;28;20209;-71
2021/01/24 11:06:51;;;;;;;13.65;1.23;;;;;;;25.57;35.19;96725.91;4993498;28;20269;-71
2021/01/24 11:09:17;;;;;;;10.60;1.30;;;;;;;25.75;35.61;96725.91;4992874;28;20212;-71
2021/01/24 11:11:44;;;;;;;10.38;1.10;;;;;;;25.91;35.38;96719.13;4993963;28;20256;-69
2021/01/24 11:14:13;;;;;;;3.90;0.90;;;;;;;25.88;36.08;96732.13;4994624;28;20348;-71
2021/01/24 11:16:39;;;;;;;8.43;1.15;;;;;;;25.93;35.67;96718.91;4996449;28;20212;-71
2021/01/24 11:19:05;;;;;;;3.80;1.05;;;;;;;25.92;35.53;96742.19;4994396;28;20232;-70
2021/01/24 11:21:31;;;;;;;7.75;1.60;;;;;;;26.03;35.49;96735.28;4995355;28;20209;-69
2021/01/24 11:23:57;;;;;;;3.55;1.10;;;;;;;26.09;35.31;96739.72;4992808;28;20269;-69
2021/01/24 11:26:24;;;;;;;4.70;0.93;;;;;;;26.12;35.93;96746.50;4994000;28;20256;-69
2021/01/24 11:28:50;;;;;;;3.78;1.10;;;;;;;26.16;35.75;96745.00;4993233;28;20229;-71
2021/01/24 11:31:17;;;;;;;6.22;0.90;;;;;;;26.32;35.71;96741.69;4993679;28;20317;-70
2021/01/24 11:33:45;;;;;;;3.90;0.93;;;;;;;26.36;34.24;96756.28;4993200;28;20372;-68